createdAt,value
2023-01-19T00:01:00.155Z,96207.67
2023-01-19T00:03:29.466Z,96196.18
2023-01-19T00:05:57.586Z,96198.62
2023-01-19T00:08:25.257Z,96187.60
2023-01-19T00:10:52.951Z,96190.06
2023-01-19T00:13:21.587Z,96187.15
2023-01-19T00:15:49.000Z,96186.16
2023-01-19T00:18:16.853Z,96204.97
2023-01-19T00:20:47.968Z,96202.95
2023-01-19T00:23:16.459Z,96205.47
2023-01-19T00:25:44.206Z,96206.86
2023-01-19T00:28:14.551Z,96215.34
2023-01-19T00:30:43.094Z,96226.72
2023-01-19T00:33:14.854Z,96207.86
2023-01-19T00:35:43.113Z,96212.37
2023-01-19T00:38:12.057Z,96200.02
2023-01-19T00:40:39.512Z,96200.23
2023-01-19T00:43:07.260Z,96187.45
2023-01-19T00:45:35.414Z,96199.70
2023-01-19T00:48:03.211Z,96191.30
2023-01-19T00:50:33.028Z,96199.64
2023-01-19T00:53:02.011Z,96215.16
2023-01-19T00:55:32.140Z,96218.33
2023-01-19T00:57:59.903Z,96213.28
2023-01-19T01:00:27.506Z,96194.29
2023-01-19T01:02:55.250Z,96185.73
2023-01-19T01:05:23.177Z,96175.61
2023-01-19T01:07:51.059Z,96175.36
2023-01-19T01:10:23.252Z,96176.70
2023-01-19T01:12:54.966Z,96167.22
2023-01-19T01:15:21.546Z,96165.40
2023-01-19T01:17:51.377Z,96162.23
2023-01-19T01:20:23.223Z,96157.60
2023-01-19T01:22:53.386Z,96162.43
2023-01-19T01:25:28.771Z,96148.46
2023-01-19T01:28:13.708Z,96139.37
2023-01-19T01:30:44.323Z,96135.84
2023-01-19T01:33:40.791Z,96145.29
2023-01-19T01:35:59.961Z,96144.63
2023-01-19T01:38:33.799Z,96150.49
2023-01-19T01:41:08.918Z,96141.09
2023-01-19T01:43:52.417Z,96143.80
2023-01-19T01:46:24.304Z,96140.48
2023-01-19T01:49:12.930Z,96139.59
2023-01-19T01:51:56.019Z,96138.27
2023-01-19T01:54:30.131Z,96125.23
2023-01-19T01:57:04.639Z,96131.45
2023-01-19T01:59:40.032Z,96121.23
2023-01-19T02:02:40.369Z,96121.70
2023-01-19T02:05:13.498Z,96125.33
2023-01-19T02:08:29.808Z,96122.17
2023-01-19T02:11:17.155Z,96119.05
2023-01-19T02:13:46.716Z,96109.68
2023-01-19T02:16:16.320Z,96114.51
2023-01-19T02:18:44.902Z,96113.16
2023-01-19T02:21:44.621Z,96115.98
2023-01-19T02:24:12.816Z,96116.09
2023-01-19T02:26:46.957Z,96115.84
2023-01-19T02:29:24.672Z,96107.53
2023-01-19T02:31:53.548Z,96104.78
2023-01-19T02:34:22.497Z,96103.64
2023-01-19T02:37:10.922Z,96104.94
2023-01-19T02:39:51.987Z,96099.05
2023-01-19T02:42:33.860Z,96095.62
2023-01-19T02:45:06.527Z,96097.38
2023-01-19T02:47:41.660Z,96097.47
2023-01-19T02:50:43.072Z,96095.55
2023-01-19T02:53:28.353Z,96099.17
2023-01-19T02:56:45.069Z,96099.20
2023-01-19T02:59:35.163Z,96094.95
2023-01-19T03:02:11.343Z,96101.08
2023-01-19T03:05:00.372Z,96093.20
2023-01-19T03:07:51.904Z,96095.02
2023-01-19T03:10:49.487Z,96098.34
2023-01-19T03:13:46.770Z,96097.67
2023-01-19T03:16:48.082Z,96096.70
2023-01-19T03:19:22.989Z,96107.07
2023-01-19T03:21:58.158Z,96106.44
2023-01-19T03:24:29.505Z,96103.51
2023-01-19T03:27:02.197Z,96091.16
2023-01-19T03:29:34.417Z,96105.42
2023-01-19T03:32:07.130Z,96100.38
2023-01-19T03:34:35.894Z,96105.00
2023-01-19T03:37:05.232Z,96117.03
2023-01-19T03:39:34.051Z,96118.59
2023-01-19T03:42:09.310Z,96121.95
2023-01-19T03:44:39.722Z,96115.86
2023-01-19T03:47:11.632Z,96123.97
2023-01-19T03:49:43.426Z,96128.23
2023-01-19T03:52:12.368Z,96116.83
2023-01-19T03:54:59.641Z,96117.81
2023-01-19T03:57:34.735Z,96120.13
2023-01-19T04:00:08.456Z,96098.80
2023-01-19T04:02:43.357Z,96105.16
2023-01-19T04:05:18.280Z,96113.31
2023-01-19T04:07:51.720Z,96122.28
2023-01-19T04:10:22.964Z,96132.61
2023-01-19T04:13:01.718Z,96130.16
2023-01-19T04:15:40.823Z,96136.45
2023-01-19T04:18:13.541Z,96135.31
2023-01-19T04:20:41.450Z,96132.19
2023-01-19T04:23:08.931Z,96124.98
2023-01-19T04:25:38.148Z,96122.08
2023-01-19T04:28:06.449Z,96124.35
2023-01-19T04:30:34.044Z,96126.39
2023-01-19T04:33:02.816Z,96124.38
2023-01-19T04:35:30.857Z,96130.25
2023-01-19T04:37:58.480Z,96140.38
2023-01-19T04:40:26.309Z,96139.73
2023-01-19T04:42:54.129Z,96132.33
2023-01-19T04:45:21.952Z,96138.63
2023-01-19T04:47:50.862Z,96131.91
2023-01-19T04:50:18.788Z,96136.64
2023-01-19T04:52:48.524Z,96150.75
2023-01-19T04:55:16.759Z,96145.93
2023-01-19T04:57:45.118Z,96141.67
2023-01-19T05:00:13.595Z,96146.59
2023-01-19T05:02:44.753Z,96144.00
2023-01-19T05:05:13.107Z,96140.70
2023-01-19T05:07:40.923Z,96137.98
2023-01-19T05:10:10.873Z,96143.79
2023-01-19T05:12:38.782Z,96144.10
2023-01-19T05:15:09.153Z,96152.03
2023-01-19T05:17:37.331Z,96161.38
2023-01-19T05:20:06.694Z,96157.65
2023-01-19T05:22:34.599Z,96158.58
2023-01-19T05:25:02.364Z,96149.34
2023-01-19T05:27:30.054Z,96149.77
2023-01-19T05:29:57.738Z,96159.78
2023-01-19T05:32:25.476Z,96172.76
2023-01-19T05:34:53.098Z,96165.34
2023-01-19T05:37:20.715Z,96163.00
2023-01-19T05:39:48.393Z,96160.98
2023-01-19T05:42:16.682Z,96167.84
2023-01-19T05:44:44.461Z,96162.80
2023-01-19T05:47:13.302Z,96162.91
2023-01-19T05:49:40.905Z,96173.50
2023-01-19T05:52:08.395Z,96172.61
2023-01-19T05:54:36.054Z,96181.84
2023-01-19T05:57:04.370Z,96178.95
2023-01-19T05:59:31.893Z,96189.31
2023-01-19T06:01:59.376Z,96198.09
2023-01-19T06:04:26.972Z,96206.18
2023-01-19T06:06:54.465Z,96183.03
2023-01-19T06:09:22.205Z,96194.93
2023-01-19T06:11:49.835Z,96191.13
2023-01-19T06:14:17.371Z,96196.95
2023-01-19T06:16:45.508Z,96205.05
2023-01-19T06:19:13.254Z,96206.18
2023-01-19T06:21:40.941Z,96210.45
2023-01-19T06:24:09.824Z,96199.19
2023-01-19T06:26:37.585Z,96206.56
2023-01-19T06:29:05.283Z,96207.91
2023-01-19T06:31:33.168Z,96202.92
2023-01-19T06:34:01.116Z,96201.06
2023-01-19T06:36:28.707Z,96199.66
2023-01-19T06:38:56.218Z,96193.66
2023-01-19T06:41:23.872Z,96187.43
2023-01-19T06:43:51.683Z,96185.19
2023-01-19T06:46:19.127Z,96171.89
2023-01-19T06:48:46.728Z,96161.44
2023-01-19T06:51:15.210Z,96161.23
2023-01-19T06:53:42.929Z,96165.66
2023-01-19T06:56:11.334Z,96167.25
2023-01-19T06:58:41.656Z,96170.88
2023-01-19T07:01:09.995Z,96175.61
2023-01-19T07:03:38.188Z,96178.21
2023-01-19T07:06:06.855Z,96195.23
2023-01-19T07:08:36.781Z,96188.75
2023-01-19T07:11:22.211Z,96192.38
2023-01-19T07:13:39.913Z,96191.50
2023-01-19T07:16:12.431Z,96189.69
2023-01-19T07:18:41.010Z,96188.55
2023-01-19T07:21:09.158Z,96183.26
2023-01-19T07:23:38.031Z,96184.24
2023-01-19T07:26:05.976Z,96185.11
2023-01-19T07:28:34.114Z,96188.64
2023-01-19T07:31:02.782Z,96191.63
2023-01-19T07:33:30.643Z,96190.78
2023-01-19T07:35:58.138Z,96199.91
2023-01-19T07:38:25.695Z,96187.25
2023-01-19T07:41:02.083Z,96188.13
2023-01-19T07:43:29.838Z,96187.85
2023-01-19T07:46:00.241Z,96177.25
2023-01-19T07:48:28.553Z,96175.42
2023-01-19T07:51:05.052Z,96165.05
2023-01-19T07:53:33.111Z,96159.86
2023-01-19T07:56:01.011Z,96161.20
2023-01-19T07:58:28.946Z,96167.06
2023-01-19T08:00:56.786Z,96164.36
2023-01-19T08:03:24.801Z,96158.59
2023-01-19T08:05:54.312Z,96163.79
2023-01-19T08:08:22.003Z,96173.16
2023-01-19T08:10:50.851Z,96166.89
2023-01-19T08:13:18.923Z,96181.09
2023-01-19T08:15:52.502Z,96198.24
2023-01-19T08:18:20.470Z,96207.04
2023-01-19T08:20:48.400Z,96200.77
2023-01-19T08:23:17.597Z,96208.98
2023-01-19T08:25:45.746Z,96208.20
2023-01-19T08:28:16.236Z,96202.71
2023-01-19T08:30:45.451Z,96205.08
2023-01-19T08:33:13.606Z,96217.25
2023-01-19T08:35:43.638Z,96204.16
2023-01-19T08:38:11.363Z,96207.52
2023-01-19T08:40:41.439Z,96205.69
2023-01-19T08:43:13.414Z,96205.63
2023-01-19T08:45:48.259Z,96223.95
2023-01-19T08:48:19.401Z,96222.00
2023-01-19T08:50:49.788Z,96218.76
2023-01-19T08:53:20.415Z,96222.20
2023-01-19T08:55:48.357Z,96216.31
2023-01-19T08:58:16.915Z,96217.84
2023-01-19T09:00:44.435Z,96221.95
2023-01-19T09:03:13.278Z,96217.28
2023-01-19T09:05:41.360Z,96218.63
2023-01-19T09:08:12.700Z,96219.83
2023-01-19T09:10:47.540Z,96222.98
2023-01-19T09:13:15.605Z,96223.19
2023-01-19T09:15:44.988Z,96219.83
2023-01-19T09:18:17.154Z,96224.41
2023-01-19T09:20:48.032Z,96229.29
2023-01-19T09:23:19.629Z,96219.97
2023-01-19T09:25:48.262Z,96214.56
2023-01-19T09:28:17.388Z,96201.25
2023-01-19T09:30:46.261Z,96201.04
2023-01-19T09:33:16.822Z,96199.89
2023-01-19T09:35:47.188Z,96201.45
2023-01-19T09:38:17.321Z,96194.91
2023-01-19T09:40:53.281Z,96205.44
2023-01-19T09:43:40.988Z,96204.33
2023-01-19T09:46:26.428Z,96203.23
2023-01-19T09:48:57.896Z,96188.16
2023-01-19T09:51:29.058Z,96175.91
2023-01-19T09:54:19.280Z,96174.64
2023-01-19T09:56:51.324Z,96167.36
2023-01-19T09:59:31.710Z,96167.72
2023-01-19T10:02:17.093Z,96167.39
2023-01-19T10:05:01.929Z,96179.62
2023-01-19T10:07:34.943Z,96169.98
2023-01-19T10:10:10.798Z,96160.09
2023-01-19T10:12:51.194Z,96158.09
2023-01-19T10:15:26.695Z,96165.22
2023-01-19T10:18:26.489Z,96166.08
2023-01-19T10:21:14.057Z,96169.06
2023-01-19T10:23:54.193Z,96162.13
2023-01-19T10:26:35.770Z,96175.39
2023-01-19T10:29:08.003Z,96169.19
2023-01-19T10:31:38.454Z,96156.41
2023-01-19T10:34:06.243Z,96161.53
2023-01-19T10:36:37.831Z,96151.47
2023-01-19T10:39:07.079Z,96164.52
2023-01-19T10:41:45.794Z,96159.66
2023-01-19T10:44:24.202Z,96156.20
2023-01-19T10:46:55.367Z,96160.90
2023-01-19T10:49:48.769Z,96164.81
2023-01-19T10:52:43.274Z,96160.55
2023-01-19T10:55:20.044Z,96154.36
2023-01-19T10:57:52.601Z,96161.39
2023-01-19T11:00:44.846Z,96173.66
2023-01-19T11:03:41.095Z,96162.23
2023-01-19T11:06:25.921Z,96159.51
2023-01-19T11:09:21.744Z,96167.31
2023-01-19T11:11:57.692Z,96164.59
2023-01-19T11:14:34.469Z,96166.54
2023-01-19T11:17:05.895Z,96168.28
2023-01-19T11:19:48.222Z,96163.59
2023-01-19T11:22:26.638Z,96168.42
2023-01-19T11:25:07.568Z,96173.66
2023-01-19T11:27:38.670Z,96164.89
2023-01-19T11:30:37.146Z,96161.39
2023-01-19T11:33:13.180Z,96167.22
2023-01-19T11:35:41.459Z,96158.64
2023-01-19T11:38:22.916Z,96170.88
2023-01-19T11:40:54.590Z,96174.77
2023-01-19T11:43:27.682Z,96183.31
2023-01-19T11:45:58.121Z,96172.79
2023-01-19T11:48:33.558Z,96174.15
2023-01-19T11:51:05.540Z,96176.48
2023-01-19T11:53:35.582Z,96170.26
2023-01-19T11:56:10.552Z,96169.25
2023-01-19T11:58:46.117Z,96179.16
2023-01-19T12:01:25.344Z,96190.81
2023-01-19T12:04:19.774Z,96190.40
2023-01-19T12:06:52.656Z,96195.64
2023-01-19T12:09:25.737Z,96189.58
2023-01-19T12:12:10.215Z,96193.08
2023-01-19T12:14:49.156Z,96189.00
2023-01-19T12:17:28.495Z,96187.02
2023-01-19T12:20:30.493Z,96190.31
2023-01-19T12:23:09.438Z,96181.96
2023-01-19T12:26:04.655Z,96181.73
2023-01-19T12:28:39.771Z,96173.61
2023-01-19T12:31:07.891Z,96175.20
2023-01-19T12:33:40.003Z,96175.44
2023-01-19T12:36:36.658Z,96180.17
2023-01-19T12:39:20.604Z,96184.32
2023-01-19T12:41:53.013Z,96185.16
2023-01-19T12:44:24.299Z,96180.17
2023-01-19T12:47:05.689Z,96185.68
2023-01-19T12:49:40.564Z,96189.80
2023-01-19T12:52:34.620Z,96192.32
2023-01-19T12:55:14.339Z,96195.46
2023-01-19T12:58:01.615Z,96201.69
2023-01-19T13:00:38.803Z,96210.20
2023-01-19T13:03:24.049Z,96211.80
2023-01-19T13:05:56.841Z,96217.40
2023-01-19T13:08:30.052Z,96228.25
2023-01-19T13:11:14.587Z,96233.50
2023-01-19T13:13:59.692Z,96242.41
2023-01-19T13:16:33.601Z,96271.18
2023-01-19T13:19:09.571Z,96287.20
2023-01-19T13:21:49.037Z,96290.84
2023-01-19T13:24:22.182Z,96304.22
2023-01-19T13:26:56.875Z,96314.40
2023-01-19T13:29:40.240Z,96327.61
2023-01-19T13:32:18.798Z,96334.83
2023-01-19T13:34:51.888Z,96334.20
2023-01-19T13:37:23.683Z,96325.13
2023-01-19T13:39:53.938Z,96330.62
2023-01-19T13:42:38.917Z,96337.17
2023-01-19T13:45:23.970Z,96350.16
2023-01-19T13:47:53.399Z,96351.94
2023-01-19T13:50:29.231Z,96361.28
2023-01-19T13:52:58.414Z,96369.06
2023-01-19T13:55:28.956Z,96376.34
2023-01-19T13:57:57.532Z,96374.42
2023-01-19T14:00:28.832Z,96380.13
2023-01-19T14:03:17.992Z,96388.96
2023-01-19T14:05:46.197Z,96399.15
2023-01-19T14:08:17.290Z,96405.72
2023-01-19T14:11:01.769Z,96411.30
2023-01-19T14:13:33.149Z,96423.17
2023-01-19T14:16:16.695Z,96425.38
2023-01-19T14:18:44.314Z,96432.77
2023-01-19T14:21:14.542Z,96449.09
2023-01-19T14:23:56.840Z,96444.84
2023-01-19T14:26:53.349Z,96446.03
2023-01-19T14:29:32.756Z,96436.41
2023-01-19T14:32:06.161Z,96442.78
2023-01-19T14:34:47.682Z,96446.69
2023-01-19T14:37:28.410Z,96447.31
2023-01-19T14:40:17.993Z,96432.24
2023-01-19T14:42:56.752Z,96429.02
2023-01-19T14:45:37.622Z,96426.13
2023-01-19T14:48:18.051Z,96415.20
2023-01-19T14:51:01.892Z,96422.09
2023-01-19T14:53:23.318Z,96421.18
2023-01-19T14:56:01.817Z,96428.41
2023-01-19T14:58:32.802Z,96431.59
2023-01-19T15:01:00.943Z,96431.42
2023-01-19T15:03:44.840Z,96426.70
2023-01-19T15:06:02.980Z,96424.02
2023-01-19T15:08:33.143Z,96427.55
2023-01-19T15:11:11.503Z,96435.09
2023-01-19T15:13:41.234Z,96435.09
2023-01-19T15:16:09.346Z,96426.19
2023-01-19T15:18:38.137Z,96425.30
2023-01-19T15:21:05.919Z,96415.47
2023-01-19T15:23:33.616Z,96428.33
2023-01-19T15:26:04.259Z,96426.87
2023-01-19T15:28:32.804Z,96428.13
2023-01-19T15:31:00.707Z,96435.81
2023-01-19T15:33:30.166Z,96439.09
2023-01-19T15:35:58.273Z,96450.05
2023-01-19T15:38:27.316Z,96454.67
2023-01-19T15:40:54.833Z,96460.40
2023-01-19T15:43:23.515Z,96477.41
2023-01-19T15:46:02.038Z,96488.03
2023-01-19T15:48:29.586Z,96481.27
2023-01-19T15:50:57.405Z,96479.59
2023-01-19T15:53:26.617Z,96479.84
2023-01-19T15:55:56.197Z,96489.08
2023-01-19T15:58:24.978Z,96497.30
2023-01-19T16:00:56.461Z,96503.48
2023-01-19T16:03:25.420Z,96517.91
2023-01-19T16:05:53.186Z,96522.17
2023-01-19T16:08:21.513Z,96532.09
2023-01-19T16:10:49.035Z,96532.53
2023-01-19T16:13:16.766Z,96533.87
2023-01-19T16:15:44.498Z,96525.45
2023-01-19T16:18:12.037Z,96516.31
2023-01-19T16:20:39.553Z,96515.43
2023-01-19T16:23:15.651Z,96524.19
2023-01-19T16:25:37.371Z,96530.51
2023-01-19T16:28:05.336Z,96527.34
2023-01-19T16:30:33.064Z,96529.16
2023-01-19T16:33:00.782Z,96529.48
2023-01-19T16:35:28.576Z,96539.06
2023-01-19T16:37:56.124Z,96540.73
2023-01-19T16:40:23.840Z,96545.79
2023-01-19T16:42:51.686Z,96556.50
2023-01-19T16:45:19.295Z,96551.88
2023-01-19T16:47:48.904Z,96551.44
2023-01-19T16:50:16.555Z,96561.11
2023-01-19T16:52:44.575Z,96582.42
2023-01-19T16:55:12.533Z,96587.36
2023-01-19T16:57:40.148Z,96590.18
2023-01-19T17:00:11.126Z,96578.23
2023-01-19T17:02:38.855Z,96571.46
2023-01-19T17:05:07.595Z,96560.42
2023-01-19T17:07:35.257Z,96561.30
2023-01-19T17:10:03.219Z,96532.72
2023-01-19T17:12:32.344Z,96523.49
2023-01-19T17:15:00.049Z,96500.33
2023-01-19T17:17:27.512Z,96500.58
2023-01-19T17:19:55.196Z,96484.16
2023-01-19T17:22:22.871Z,96493.81
2023-01-19T17:24:50.719Z,96481.44
2023-01-19T17:27:18.383Z,96490.46
2023-01-19T17:29:46.855Z,96469.75
2023-01-19T17:32:15.608Z,96468.97
2023-01-19T17:34:43.122Z,96516.47
2023-01-19T17:37:10.476Z,96513.98
2023-01-19T17:39:38.293Z,96555.27
2023-01-19T17:42:05.931Z,96564.27
2023-01-19T17:44:34.045Z,96587.91
2023-01-19T17:47:01.740Z,96599.47
2023-01-19T17:49:29.597Z,96605.41
2023-01-19T17:51:57.214Z,96591.91
2023-01-19T17:54:25.119Z,96597.05
2023-01-19T17:56:53.080Z,96596.73
2023-01-19T17:59:20.557Z,96578.63
2023-01-19T18:01:48.189Z,96588.42
2023-01-19T18:04:17.797Z,96578.53
2023-01-19T18:06:46.612Z,96578.53
2023-01-19T18:09:14.299Z,96565.25
2023-01-19T18:11:42.553Z,96549.86
2023-01-19T18:14:10.228Z,96545.80
2023-01-19T18:16:38.022Z,96538.16
2023-01-19T18:19:05.873Z,96543.02
2023-01-19T18:21:33.544Z,96573.95
2023-01-19T18:24:04.523Z,96601.87
2023-01-19T18:26:34.090Z,96616.03
2023-01-19T18:29:01.882Z,96619.20
2023-01-19T18:31:29.638Z,96621.36
2023-01-19T18:33:58.418Z,96603.80
2023-01-19T18:36:26.269Z,96599.63
2023-01-19T18:38:54.288Z,96616.30
2023-01-19T18:41:22.746Z,96608.41
2023-01-19T18:43:52.456Z,96619.56
2023-01-19T18:46:20.635Z,96621.48
2023-01-19T18:48:48.272Z,96617.43
2023-01-19T18:51:16.968Z,96614.73
2023-01-19T18:53:45.385Z,96611.56
2023-01-19T18:56:15.292Z,96616.53
2023-01-19T18:58:43.582Z,96603.91
2023-01-19T19:01:25.099Z,96596.05
2023-01-19T19:03:54.939Z,96576.00
2023-01-19T19:06:25.845Z,96578.23
2023-01-19T19:08:56.151Z,96591.31
2023-01-19T19:11:25.288Z,96595.81
2023-01-19T19:13:57.750Z,96608.75
2023-01-19T19:16:26.241Z,96641.05
2023-01-19T19:18:54.034Z,96651.86
2023-01-19T19:21:24.815Z,96653.66
2023-01-19T19:23:55.799Z,96646.87
2023-01-19T19:26:27.415Z,96656.77
2023-01-19T19:28:55.570Z,96661.95
2023-01-19T19:31:25.603Z,96656.33
2023-01-19T19:33:55.525Z,96654.53
2023-01-19T19:36:25.243Z,96643.86
2023-01-19T19:38:53.346Z,96637.67
2023-01-19T19:41:26.378Z,96636.56
2023-01-19T19:43:55.522Z,96630.93
2023-01-19T19:46:23.800Z,96645.69
2023-01-19T19:48:52.382Z,96649.05
2023-01-19T19:51:27.556Z,96653.80
2023-01-19T19:53:59.929Z,96661.78
2023-01-19T19:56:31.105Z,96666.03
2023-01-19T19:58:59.599Z,96663.77
2023-01-19T20:01:32.616Z,96663.33
2023-01-19T20:04:07.073Z,96659.84
2023-01-19T20:06:39.371Z,96650.95
2023-01-19T20:09:12.045Z,96640.15
2023-01-19T20:11:40.755Z,96642.38
2023-01-19T20:14:10.673Z,96642.38
2023-01-19T20:16:38.915Z,96624.95
2023-01-19T20:19:06.952Z,96618.30
2023-01-19T20:21:37.761Z,96618.73
2023-01-19T20:24:13.622Z,96626.63
2023-01-19T20:26:45.743Z,96638.99
2023-01-19T20:29:13.453Z,96634.72
2023-01-19T20:31:48.213Z,96642.35
2023-01-19T20:34:20.008Z,96647.72
2023-01-19T20:36:49.851Z,96644.54
2023-01-19T20:39:18.552Z,96648.81
2023-01-19T20:41:48.089Z,96647.69
2023-01-19T20:44:21.618Z,96638.45
2023-01-19T20:46:50.676Z,96637.36
2023-01-19T20:49:18.458Z,96638.92
2023-01-19T20:51:46.523Z,96636.02
2023-01-19T20:54:17.205Z,96632.21
2023-01-19T20:56:44.993Z,96643.30
2023-01-19T20:59:13.349Z,96646.20
2023-01-19T21:01:41.897Z,96646.58
2023-01-19T21:04:10.648Z,96657.14
2023-01-19T21:06:40.838Z,96653.88
2023-01-19T21:09:10.542Z,96659.71
2023-01-19T21:11:39.141Z,96661.76
2023-01-19T21:14:07.525Z,96656.55
2023-01-19T21:16:35.420Z,96652.02
2023-01-19T21:19:04.045Z,96650.89
2023-01-19T21:21:32.218Z,96648.63
2023-01-19T21:24:01.634Z,96651.11
2023-01-19T21:26:30.444Z,96660.44
2023-01-19T21:28:59.273Z,96662.91
2023-01-19T21:31:28.277Z,96673.80
2023-01-19T21:33:57.670Z,96674.72
2023-01-19T21:36:26.037Z,96676.94
2023-01-19T21:38:55.717Z,96672.11
2023-01-19T21:41:23.535Z,96665.01
2023-01-19T21:43:51.241Z,96658.82
2023-01-19T21:46:22.039Z,96666.36
2023-01-19T21:48:49.934Z,96667.23
2023-01-19T21:51:17.564Z,96654.30
2023-01-19T21:53:46.178Z,96641.84
2023-01-19T21:56:14.874Z,96652.86
2023-01-19T21:58:42.767Z,96677.06
2023-01-19T22:01:12.117Z,96689.09
2023-01-19T22:03:41.463Z,96691.79
2023-01-19T22:06:12.929Z,96682.81
2023-01-19T22:08:41.501Z,96674.59
2023-01-19T22:11:11.825Z,96674.41
2023-01-19T22:13:41.030Z,96674.98
2023-01-19T22:16:13.513Z,96666.34
2023-01-19T22:18:44.264Z,96676.02
2023-01-19T22:21:21.482Z,96685.34
2023-01-19T22:23:52.641Z,96671.65
2023-01-19T22:26:20.969Z,96653.84
2023-01-19T22:28:58.621Z,96650.70
2023-01-19T22:31:28.473Z,96659.47
2023-01-19T22:33:56.678Z,96668.35
2023-01-19T22:36:30.418Z,96682.38
2023-01-19T22:39:00.617Z,96675.16
2023-01-19T22:41:44.692Z,96664.01
2023-01-19T22:44:17.257Z,96655.09
2023-01-19T22:46:44.733Z,96658.00
2023-01-19T22:49:15.614Z,96644.49
2023-01-19T22:51:44.391Z,96639.75
2023-01-19T22:54:12.581Z,96636.70
2023-01-19T22:56:41.190Z,96637.36
2023-01-19T22:59:09.059Z,96623.52
2023-01-19T23:01:44.125Z,96621.25
2023-01-19T23:04:15.207Z,96621.11
2023-01-19T23:06:45.788Z,96618.50
2023-01-19T23:09:14.447Z,96626.60
2023-01-19T23:11:47.204Z,96620.11
2023-01-19T23:14:18.891Z,96617.63
2023-01-19T23:16:46.669Z,96608.32
2023-01-19T23:19:16.613Z,96608.89
2023-01-19T23:21:45.260Z,96605.06
2023-01-19T23:24:12.947Z,96606.67
2023-01-19T23:26:40.502Z,96605.31
2023-01-19T23:29:12.347Z,96614.51
2023-01-19T23:31:43.467Z,96614.77
2023-01-19T23:34:12.786Z,96611.81
2023-01-19T23:36:42.204Z,96616.77
2023-01-19T23:39:20.144Z,96621.94
2023-01-19T23:41:48.262Z,96624.77
2023-01-19T23:44:16.703Z,96622.86
2023-01-19T23:46:45.287Z,96618.81
2023-01-19T23:49:13.572Z,96617.77
2023-01-19T23:51:42.107Z,96612.81
2023-01-19T23:54:09.680Z,96619.67
2023-01-19T23:56:37.775Z,96626.38
2023-01-19T23:59:09.774Z,96626.94
